sensor_id;sensor_type;location;lat;lon;timestamp;P1;durP1;ratioP1;P2;durP2;ratioP2
58528;SDS011;44322;52.968;5.816;2023-06-14T00:01:45;4.65;;;2.30;;
58528;SDS011;44322;52.968;5.816;2023-06-14T00:04:11;8.52;;;2.60;;
58528;SDS011;44322;52.968;5.816;2023-06-14T00:06:38;5.00;;;2.20;;
58528;SDS011;44322;52.968;5.816;2023-06-14T00:09:04;6.28;;;2.42;;
58528;SDS011;44322;52.968;5.816;2023-06-14T00:11:30;4.97;;;2.10;;
58528;SDS011;44322;52.968;5.816;2023-06-14T00:13:56;6.05;;;2.70;;
58528;SDS011;44322;52.968;5.816;2023-06-14T00:16:22;2.88;;;2.28;;
58528;SDS011;44322;52.968;5.816;2023-06-14T00:18:48;2.17;;;1.80;;
58528;SDS011;44322;52.968;5.816;2023-06-14T00:21:14;6.18;;;2.28;;
58528;SDS011;44322;52.968;5.816;2023-06-14T00:23:39;5.65;;;2.25;;
58528;SDS011;44322;52.968;5.816;2023-06-14T00:26:05;5.28;;;1.92;;
58528;SDS011;44322;52.968;5.816;2023-06-14T00:28:31;6.93;;;2.30;;
58528;SDS011;44322;52.968;5.816;2023-06-14T00:30:56;5.50;;;2.10;;
58528;SDS011;44322;52.968;5.816;2023-06-14T00:33:22;4.28;;;2.22;;
58528;SDS011;44322;52.968;5.816;2023-06-14T00:35:47;4.75;;;2.60;;
58528;SDS011;44322;52.968;5.816;2023-06-14T00:38:13;5.60;;;2.42;;
58528;SDS011;44322;52.968;5.816;2023-06-14T00:40:39;4.22;;;2.55;;
58528;SDS011;44322;52.968;5.816;2023-06-14T00:43:05;5.35;;;2.40;;
58528;SDS011;44322;52.968;5.816;2023-06-14T00:45:31;11.10;;;2.50;;
58528;SDS011;44322;52.968;5.816;2023-06-14T00:48:01;3.45;;;2.58;;
58528;SDS011;44322;52.968;5.816;2023-06-14T00:50:28;9.30;;;2.95;;
58528;SDS011;44322;52.968;5.816;2023-06-14T00:52:55;5.78;;;2.63;;
58528;SDS011;44322;52.968;5.816;2023-06-14T00:55:21;7.05;;;2.70;;
58528;SDS011;44322;52.968;5.816;2023-06-14T00:57:47;5.20;;;2.55;;
58528;SDS011;44322;52.968;5.816;2023-06-14T01:00:14;3.38;;;2.47;;
58528;SDS011;44322;52.968;5.816;2023-06-14T01:02:39;5.63;;;2.92;;
58528;SDS011;44322;52.968;5.816;2023-06-14T01:05:08;4.65;;;2.50;;
58528;SDS011;44322;52.968;5.816;2023-06-14T01:13:07;4.78;;;2.60;;
58528;SDS011;44322;52.968;5.816;2023-06-14T01:15:34;6.82;;;2.70;;
58528;SDS011;44322;52.968;5.816;2023-06-14T01:18:01;8.50;;;2.50;;
58528;SDS011;44322;52.968;5.816;2023-06-14T01:20:31;7.05;;;2.40;;
58528;SDS011;44322;52.968;5.816;2023-06-14T01:22:58;4.22;;;2.40;;
58528;SDS011;44322;52.968;5.816;2023-06-14T01:25:24;6.40;;;2.40;;
58528;SDS011;44322;52.968;5.816;2023-06-14T01:27:55;4.22;;;2.53;;
58528;SDS011;44322;52.968;5.816;2023-06-14T01:30:25;9.60;;;2.67;;
58528;SDS011;44322;52.968;5.816;2023-06-14T01:32:51;3.53;;;2.28;;
58528;SDS011;44322;52.968;5.816;2023-06-14T01:35:17;3.97;;;2.45;;
58528;SDS011;44322;52.968;5.816;2023-06-14T01:37:43;5.65;;;2.67;;
58528;SDS011;44322;52.968;5.816;2023-06-14T01:40:09;4.38;;;3.03;;
58528;SDS011;44322;52.968;5.816;2023-06-14T01:42:36;3.80;;;2.53;;
58528;SDS011;44322;52.968;5.816;2023-06-14T01:45:04;5.35;;;2.67;;
58528;SDS011;44322;52.968;5.816;2023-06-14T01:47:31;2.90;;;2.33;;
58528;SDS011;44322;52.968;5.816;2023-06-14T01:49:57;5.57;;;2.35;;
58528;SDS011;44322;52.968;5.816;2023-06-14T01:52:22;2.72;;;2.20;;
58528;SDS011;44322;52.968;5.816;2023-06-14T01:54:49;6.57;;;2.75;;
58528;SDS011;44322;52.968;5.816;2023-06-14T01:57:15;6.88;;;2.80;;
58528;SDS011;44322;52.968;5.816;2023-06-14T01:59:41;4.90;;;2.65;;
58528;SDS011;44322;52.968;5.816;2023-06-14T02:02:08;3.97;;;2.50;;
58528;SDS011;44322;52.968;5.816;2023-06-14T02:04:33;4.05;;;2.53;;
58528;SDS011;44322;52.968;5.816;2023-06-14T02:06:59;6.50;;;2.75;;
58528;SDS011;44322;52.968;5.816;2023-06-14T02:09:25;5.78;;;3.08;;
58528;SDS011;44322;52.968;5.816;2023-06-14T02:11:53;5.20;;;2.83;;
58528;SDS011;44322;52.968;5.816;2023-06-14T02:14:19;4.40;;;2.63;;
58528;SDS011;44322;52.968;5.816;2023-06-14T02:16:45;4.55;;;2.97;;
58528;SDS011;44322;52.968;5.816;2023-06-14T02:19:17;6.00;;;3.08;;
58528;SDS011;44322;52.968;5.816;2023-06-14T02:21:43;4.60;;;2.28;;
58528;SDS011;44322;52.968;5.816;2023-06-14T02:26:37;6.15;;;2.65;;
58528;SDS011;44322;52.968;5.816;2023-06-14T02:29:04;4.18;;;2.88;;
58528;SDS011;44322;52.968;5.816;2023-06-14T02:31:31;3.30;;;2.65;;
58528;SDS011;44322;52.968;5.816;2023-06-14T02:33:57;5.35;;;2.90;;
58528;SDS011;44322;52.968;5.816;2023-06-14T02:36:23;4.20;;;2.70;;
58528;SDS011;44322;52.968;5.816;2023-06-14T02:38:49;5.88;;;2.45;;
58528;SDS011;44322;52.968;5.816;2023-06-14T02:41:15;4.00;;;3.03;;
58528;SDS011;44322;52.968;5.816;2023-06-14T02:43:40;7.75;;;2.67;;
58528;SDS011;44322;52.968;5.816;2023-06-14T02:46:06;6.35;;;2.72;;
58528;SDS011;44322;52.968;5.816;2023-06-14T02:48:32;4.57;;;2.50;;
58528;SDS011;44322;52.968;5.816;2023-06-14T02:50:58;6.63;;;2.78;;
58528;SDS011;44322;52.968;5.816;2023-06-14T02:53:23;4.57;;;2.50;;
58528;SDS011;44322;52.968;5.816;2023-06-14T02:55:49;4.68;;;2.67;;
58528;SDS011;44322;52.968;5.816;2023-06-14T02:58:15;4.43;;;2.58;;
58528;SDS011;44322;52.968;5.816;2023-06-14T03:00:41;5.05;;;2.80;;
58528;SDS011;44322;52.968;5.816;2023-06-14T03:03:07;3.88;;;2.53;;
58528;SDS011;44322;52.968;5.816;2023-06-14T03:05:46;3.55;;;2.45;;
58528;SDS011;44322;52.968;5.816;2023-06-14T03:08:17;6.07;;;2.50;;
58528;SDS011;44322;52.968;5.816;2023-06-14T03:10:46;5.68;;;2.40;;
58528;SDS011;44322;52.968;5.816;2023-06-14T03:13:12;4.20;;;2.28;;
58528;SDS011;44322;52.968;5.816;2023-06-14T03:15:39;2.80;;;2.13;;
58528;SDS011;44322;52.968;5.816;2023-06-14T03:18:10;3.70;;;2.70;;
58528;SDS011;44322;52.968;5.816;2023-06-14T03:20:37;4.28;;;2.42;;
58528;SDS011;44322;52.968;5.816;2023-06-14T03:25:31;4.20;;;2.78;;
58528;SDS011;44322;52.968;5.816;2023-06-14T03:30:24;4.88;;;2.83;;
58528;SDS011;44322;52.968;5.816;2023-06-14T03:32:52;6.10;;;2.88;;
58528;SDS011;44322;52.968;5.816;2023-06-14T03:35:19;3.80;;;2.50;;
58528;SDS011;44322;52.968;5.816;2023-06-14T03:37:47;3.38;;;2.50;;
58528;SDS011;44322;52.968;5.816;2023-06-14T03:40:14;2.50;;;2.25;;
58528;SDS011;44322;52.968;5.816;2023-06-14T03:42:43;4.00;;;2.70;;
58528;SDS011;44322;52.968;5.816;2023-06-14T03:45:09;5.18;;;2.50;;
58528;SDS011;44322;52.968;5.816;2023-06-14T03:47:36;4.22;;;2.50;;
58528;SDS011;44322;52.968;5.816;2023-06-14T03:50:05;3.75;;;2.60;;
58528;SDS011;44322;52.968;5.816;2023-06-14T03:52:31;3.45;;;2.30;;
58528;SDS011;44322;52.968;5.816;2023-06-14T03:54:58;3.65;;;2.75;;
58528;SDS011;44322;52.968;5.816;2023-06-14T03:57:26;4.32;;;2.40;;
58528;SDS011;44322;52.968;5.816;2023-06-14T03:59:53;3.88;;;2.33;;
58528;SDS011;44322;52.968;5.816;2023-06-14T04:02:19;6.13;;;2.60;;
58528;SDS011;44322;52.968;5.816;2023-06-14T04:04:45;4.50;;;2.50;;
58528;SDS011;44322;52.968;5.816;2023-06-14T04:07:11;4.57;;;2.90;;
58528;SDS011;44322;52.968;5.816;2023-06-14T04:09:38;6.50;;;2.90;;
58528;SDS011;44322;52.968;5.816;2023-06-14T04:12:05;5.23;;;2.70;;
58528;SDS011;44322;52.968;5.816;2023-06-14T04:14:32;3.80;;;3.07;;
58528;SDS011;44322;52.968;5.816;2023-06-14T04:16:59;5.13;;;2.80;;
58528;SDS011;44322;52.968;5.816;2023-06-14T04:19:25;5.82;;;2.72;;
58528;SDS011;44322;52.968;5.816;2023-06-14T04:21:51;4.53;;;2.47;;
58528;SDS011;44322;52.968;5.816;2023-06-14T04:24:17;3.53;;;2.92;;
58528;SDS011;44322;52.968;5.816;2023-06-14T04:26:46;4.38;;;2.70;;
58528;SDS011;44322;52.968;5.816;2023-06-14T04:29:15;5.25;;;3.10;;
58528;SDS011;44322;52.968;5.816;2023-06-14T04:31:42;5.57;;;2.97;;
58528;SDS011;44322;52.968;5.816;2023-06-14T04:34:10;4.55;;;3.00;;
58528;SDS011;44322;52.968;5.816;2023-06-14T04:36:41;4.90;;;3.03;;
58528;SDS011;44322;52.968;5.816;2023-06-14T04:39:21;4.53;;;3.08;;
58528;SDS011;44322;52.968;5.816;2023-06-14T04:41:47;4.60;;;3.22;;
58528;SDS011;44322;52.968;5.816;2023-06-14T04:44:18;4.53;;;3.10;;
58528;SDS011;44322;52.968;5.816;2023-06-14T04:46:46;7.70;;;3.33;;
58528;SDS011;44322;52.968;5.816;2023-06-14T04:49:19;4.30;;;2.90;;
58528;SDS011;44322;52.968;5.816;2023-06-14T04:51:45;4.85;;;3.67;;
58528;SDS011;44322;52.968;5.816;2023-06-14T04:54:12;6.45;;;3.50;;
58528;SDS011;44322;52.968;5.816;2023-06-14T04:56:40;5.20;;;3.30;;
58528;SDS011;44322;52.968;5.816;2023-06-14T04:59:06;7.03;;;3.38;;
58528;SDS011;44322;52.968;5.816;2023-06-14T05:01:32;4.85;;;3.90;;
58528;SDS011;44322;52.968;5.816;2023-06-14T05:03:58;4.95;;;3.30;;
58528;SDS011;44322;52.968;5.816;2023-06-14T05:06:24;4.70;;;3.55;;
58528;SDS011;44322;52.968;5.816;2023-06-14T05:08:51;5.43;;;3.33;;
58528;SDS011;44322;52.968;5.816;2023-06-14T05:11:17;6.57;;;3.78;;
58528;SDS011;44322;52.968;5.816;2023-06-14T05:13:43;7.32;;;3.55;;
58528;SDS011;44322;52.968;5.816;2023-06-14T05:16:11;5.85;;;3.80;;
58528;SDS011;44322;52.968;5.816;2023-06-14T05:18:37;10.00;;;3.65;;
58528;SDS011;44322;52.968;5.816;2023-06-14T05:21:05;7.00;;;3.67;;
58528;SDS011;44322;52.968;5.816;2023-06-14T05:23:31;6.50;;;3.40;;
58528;SDS011;44322;52.968;5.816;2023-06-14T05:25:56;5.38;;;3.50;;
58528;SDS011;44322;52.968;5.816;2023-06-14T05:28:22;6.72;;;3.65;;
58528;SDS011;44322;52.968;5.816;2023-06-14T05:30:48;12.10;;;4.18;;
58528;SDS011;44322;52.968;5.816;2023-06-14T05:33:14;4.80;;;3.67;;
58528;SDS011;44322;52.968;5.816;2023-06-14T05:35:39;5.78;;;3.55;;
58528;SDS011;44322;52.968;5.816;2023-06-14T05:38:05;7.75;;;3.83;;
58528;SDS011;44322;52.968;5.816;2023-06-14T05:40:32;5.55;;;3.55;;
58528;SDS011;44322;52.968;5.816;2023-06-14T05:42:58;7.00;;;3.90;;
58528;SDS011;44322;52.968;5.816;2023-06-14T05:45:24;6.60;;;3.80;;
58528;SDS011;44322;52.968;5.816;2023-06-14T05:47:50;4.88;;;3.28;;
58528;SDS011;44322;52.968;5.816;2023-06-14T05:50:15;7.15;;;3.58;;
58528;SDS011;44322;52.968;5.816;2023-06-14T05:52:41;7.30;;;3.65;;
58528;SDS011;44322;52.968;5.816;2023-06-14T05:55:07;9.32;;;3.80;;
58528;SDS011;44322;52.968;5.816;2023-06-14T05:57:33;5.13;;;3.40;;
58528;SDS011;44322;52.968;5.816;2023-06-14T05:59:58;5.65;;;3.38;;
58528;SDS011;44322;52.968;5.816;2023-06-14T06:02:24;6.45;;;3.33;;
58528;SDS011;44322;52.968;5.816;2023-06-14T06:04:49;6.18;;;3.60;;
58528;SDS011;44322;52.968;5.816;2023-06-14T06:07:15;6.72;;;3.75;;
58528;SDS011;44322;52.968;5.816;2023-06-14T06:09:41;4.82;;;3.30;;
58528;SDS011;44322;52.968;5.816;2023-06-14T06:12:09;5.20;;;3.38;;
58528;SDS011;44322;52.968;5.816;2023-06-14T06:14:35;5.72;;;3.50;;
58528;SDS011;44322;52.968;5.816;2023-06-14T06:17:01;7.47;;;3.78;;
58528;SDS011;44322;52.968;5.816;2023-06-14T06:19:26;4.47;;;2.88;;
58528;SDS011;44322;52.968;5.816;2023-06-14T06:21:52;5.85;;;3.50;;
58528;SDS011;44322;52.968;5.816;2023-06-14T06:24:17;5.60;;;3.13;;
58528;SDS011;44322;52.968;5.816;2023-06-14T06:26:43;6.05;;;3.17;;
58528;SDS011;44322;52.968;5.816;2023-06-14T06:29:08;5.72;;;3.28;;
58528;SDS011;44322;52.968;5.816;2023-06-14T06:31:34;4.63;;;2.85;;
58528;SDS011;44322;52.968;5.816;2023-06-14T06:34:00;4.72;;;2.85;;
58528;SDS011;44322;52.968;5.816;2023-06-14T06:36:25;3.33;;;2.90;;
58528;SDS011;44322;52.968;5.816;2023-06-14T06:38:51;4.30;;;2.80;;
58528;SDS011;44322;52.968;5.816;2023-06-14T06:41:16;4.18;;;2.47;;
58528;SDS011;44322;52.968;5.816;2023-06-14T06:43:42;4.30;;;2.70;;
58528;SDS011;44322;52.968;5.816;2023-06-14T06:46:09;5.55;;;2.72;;
58528;SDS011;44322;52.968;5.816;2023-06-14T06:48:34;5.65;;;2.60;;
58528;SDS011;44322;52.968;5.816;2023-06-14T06:51:21;4.07;;;2.55;;
58528;SDS011;44322;52.968;5.816;2023-06-14T06:54:17;3.47;;;2.20;;
58528;SDS011;44322;52.968;5.816;2023-06-14T06:56:46;4.80;;;2.65;;
58528;SDS011;44322;52.968;5.816;2023-06-14T06:59:48;6.05;;;2.45;;
58528;SDS011;44322;52.968;5.816;2023-06-14T07:02:31;5.30;;;2.20;;
58528;SDS011;44322;52.968;5.816;2023-06-14T07:05:13;5.07;;;2.30;;
58528;SDS011;44322;52.968;5.816;2023-06-14T07:07:53;2.95;;;2.30;;
58528;SDS011;44322;52.968;5.816;2023-06-14T07:10:26;4.20;;;2.58;;
58528;SDS011;44322;52.968;5.816;2023-06-14T07:13:05;4.40;;;2.45;;
58528;SDS011;44322;52.968;5.816;2023-06-14T07:15:44;3.42;;;2.50;;
58528;SDS011;44322;52.968;5.816;2023-06-14T07:18:23;4.55;;;2.00;;
58528;SDS011;44322;52.968;5.816;2023-06-14T07:24:08;4.65;;;2.70;;
58528;SDS011;44322;52.968;5.816;2023-06-14T07:26:49;4.55;;;2.22;;
58528;SDS011;44322;52.968;5.816;2023-06-14T07:29:15;4.05;;;2.30;;
58528;SDS011;44322;52.968;5.816;2023-06-14T07:31:41;4.45;;;2.30;;
58528;SDS011;44322;52.968;5.816;2023-06-14T07:34:07;3.05;;;2.20;;
58528;SDS011;44322;52.968;5.816;2023-06-14T07:36:33;3.53;;;2.25;;
58528;SDS011;44322;52.968;5.816;2023-06-14T07:38:58;2.97;;;2.05;;
58528;SDS011;44322;52.968;5.816;2023-06-14T07:41:24;5.07;;;2.60;;
58528;SDS011;44322;52.968;5.816;2023-06-14T07:43:50;5.78;;;2.20;;
58528;SDS011;44322;52.968;5.816;2023-06-14T07:46:16;2.60;;;2.20;;
58528;SDS011;44322;52.968;5.816;2023-06-14T07:48:42;5.05;;;1.92;;
58528;SDS011;44322;52.968;5.816;2023-06-14T07:51:07;3.40;;;1.90;;
58528;SDS011;44322;52.968;5.816;2023-06-14T07:53:33;3.92;;;2.15;;
58528;SDS011;44322;52.968;5.816;2023-06-14T07:55:58;2.78;;;2.10;;
58528;SDS011;44322;52.968;5.816;2023-06-14T07:58:25;6.10;;;2.30;;
58528;SDS011;44322;52.968;5.816;2023-06-14T08:00:51;3.25;;;2.47;;
58528;SDS011;44322;52.968;5.816;2023-06-14T08:03:16;3.38;;;2.30;;
58528;SDS011;44322;52.968;5.816;2023-06-14T08:05:43;3.78;;;2.28;;
58528;SDS011;44322;52.968;5.816;2023-06-14T08:08:09;4.72;;;2.72;;
58528;SDS011;44322;52.968;5.816;2023-06-14T08:10:34;3.08;;;2.70;;
58528;SDS011;44322;52.968;5.816;2023-06-14T08:13:00;3.97;;;2.38;;
58528;SDS011;44322;52.968;5.816;2023-06-14T08:15:25;4.53;;;2.40;;
58528;SDS011;44322;52.968;5.816;2023-06-14T08:17:51;4.10;;;2.38;;
58528;SDS011;44322;52.968;5.816;2023-06-14T08:20:17;4.38;;;2.50;;
58528;SDS011;44322;52.968;5.816;2023-06-14T08:22:42;3.03;;;2.30;;
58528;SDS011;44322;52.968;5.816;2023-06-14T08:25:08;5.88;;;2.28;;
58528;SDS011;44322;52.968;5.816;2023-06-14T08:27:34;4.07;;;2.30;;
58528;SDS011;44322;52.968;5.816;2023-06-14T08:30:00;3.22;;;2.15;;
58528;SDS011;44322;52.968;5.816;2023-06-14T08:32:27;6.55;;;2.60;;
58528;SDS011;44322;52.968;5.816;2023-06-14T08:34:53;3.78;;;2.42;;
58528;SDS011;44322;52.968;5.816;2023-06-14T08:37:19;3.85;;;2.25;;
58528;SDS011;44322;52.968;5.816;2023-06-14T08:39:45;4.60;;;2.65;;
58528;SDS011;44322;52.968;5.816;2023-06-14T08:42:11;4.93;;;2.40;;
58528;SDS011;44322;52.968;5.816;2023-06-14T08:44:37;3.35;;;2.20;;
58528;SDS011;44322;52.968;5.816;2023-06-14T08:47:03;3.03;;;2.22;;
58528;SDS011;44322;52.968;5.816;2023-06-14T08:49:31;5.03;;;2.05;;
58528;SDS011;44322;52.968;5.816;2023-06-14T08:51:58;4.55;;;2.33;;
58528;SDS011;44322;52.968;5.816;2023-06-14T08:54:28;3.60;;;2.20;;
58528;SDS011;44322;52.968;5.816;2023-06-14T08:56:56;4.53;;;2.85;;
58528;SDS011;44322;52.968;5.816;2023-06-14T08:59:24;3.60;;;2.38;;
58528;SDS011;44322;52.968;5.816;2023-06-14T09:01:51;5.63;;;2.42;;
58528;SDS011;44322;52.968;5.816;2023-06-14T09:04:18;4.25;;;2.53;;
58528;SDS011;44322;52.968;5.816;2023-06-14T09:06:45;7.90;;;2.75;;
58528;SDS011;44322;52.968;5.816;2023-06-14T09:09:11;4.28;;;2.15;;
58528;SDS011;44322;52.968;5.816;2023-06-14T09:11:37;6.10;;;2.20;;
58528;SDS011;44322;52.968;5.816;2023-06-14T09:14:03;4.95;;;2.30;;
58528;SDS011;44322;52.968;5.816;2023-06-14T09:16:31;7.80;;;2.55;;
58528;SDS011;44322;52.968;5.816;2023-06-14T09:18:57;6.72;;;2.13;;
58528;SDS011;44322;52.968;5.816;2023-06-14T09:21:23;2.78;;;1.90;;
58528;SDS011;44322;52.968;5.816;2023-06-14T09:23:48;3.88;;;1.98;;
58528;SDS011;44322;52.968;5.816;2023-06-14T09:26:18;4.80;;;2.15;;
58528;SDS011;44322;52.968;5.816;2023-06-14T09:28:48;6.72;;;2.45;;
58528;SDS011;44322;52.968;5.816;2023-06-14T09:31:18;4.78;;;1.90;;
58528;SDS011;44322;52.968;5.816;2023-06-14T09:33:45;3.88;;;2.05;;
58528;SDS011;44322;52.968;5.816;2023-06-14T09:36:23;4.22;;;2.22;;
58528;SDS011;44322;52.968;5.816;2023-06-14T09:38:57;3.47;;;1.80;;
58528;SDS011;44322;52.968;5.816;2023-06-14T09:44:01;3.05;;;2.30;;
58528;SDS011;44322;52.968;5.816;2023-06-14T09:46:29;3.72;;;2.30;;
58528;SDS011;44322;52.968;5.816;2023-06-14T09:48:55;3.25;;;2.20;;
58528;SDS011;44322;52.968;5.816;2023-06-14T09:51:22;3.28;;;2.20;;
58528;SDS011;44322;52.968;5.816;2023-06-14T09:53:51;3.83;;;2.15;;
58528;SDS011;44322;52.968;5.816;2023-06-14T09:56:27;3.72;;;1.77;;
58528;SDS011;44322;52.968;5.816;2023-06-14T09:59:01;2.90;;;2.20;;
58528;SDS011;44322;52.968;5.816;2023-06-14T10:01:30;2.97;;;2.10;;
58528;SDS011;44322;52.968;5.816;2023-06-14T10:04:04;3.10;;;1.93;;
58528;SDS011;44322;52.968;5.816;2023-06-14T10:06:30;3.03;;;2.05;;
58528;SDS011;44322;52.968;5.816;2023-06-14T10:08:57;3.10;;;1.80;;
58528;SDS011;44322;52.968;5.816;2023-06-14T10:11:27;2.80;;;1.83;;
58528;SDS011;44322;52.968;5.816;2023-06-14T10:13:54;4.95;;;1.80;;
58528;SDS011;44322;52.968;5.816;2023-06-14T10:16:28;5.13;;;2.10;;
58528;SDS011;44322;52.968;5.816;2023-06-14T10:19:07;2.33;;;2.10;;
58528;SDS011;44322;52.968;5.816;2023-06-14T10:22:01;4.30;;;2.58;;
58528;SDS011;44322;52.968;5.816;2023-06-14T10:24:38;4.15;;;2.00;;
58528;SDS011;44322;52.968;5.816;2023-06-14T10:27:07;2.85;;;2.00;;
58528;SDS011;44322;52.968;5.816;2023-06-14T10:32:26;3.60;;;2.40;;
58528;SDS011;44322;52.968;5.816;2023-06-14T10:34:54;4.85;;;2.10;;
58528;SDS011;44322;52.968;5.816;2023-06-14T10:37:22;3.38;;;2.17;;
58528;SDS011;44322;52.968;5.816;2023-06-14T10:39:47;3.65;;;1.98;;
58528;SDS011;44322;52.968;5.816;2023-06-14T10:42:14;4.20;;;2.50;;
58528;SDS011;44322;52.968;5.816;2023-06-14T10:44:44;4.10;;;2.45;;
58528;SDS011;44322;52.968;5.816;2023-06-14T10:47:20;3.85;;;2.53;;
58528;SDS011;44322;52.968;5.816;2023-06-14T10:49:51;2.42;;;2.22;;
58528;SDS011;44322;52.968;5.816;2023-06-14T10:52:25;5.18;;;2.08;;
58528;SDS011;44322;52.968;5.816;2023-06-14T10:54:59;6.63;;;2.05;;
58528;SDS011;44322;52.968;5.816;2023-06-14T10:57:53;7.93;;;2.60;;
58528;SDS011;44322;52.968;5.816;2023-06-14T11:00:30;5.75;;;1.90;;
58528;SDS011;44322;52.968;5.816;2023-06-14T11:05:52;5.60;;;2.10;;
58528;SDS011;44322;52.968;5.816;2023-06-14T11:10:59;6.82;;;2.40;;
58528;SDS011;44322;52.968;5.816;2023-06-14T11:13:26;3.30;;;2.30;;
58528;SDS011;44322;52.968;5.816;2023-06-14T11:15:51;2.95;;;2.38;;
58528;SDS011;44322;52.968;5.816;2023-06-14T11:18:22;6.03;;;1.95;;
58528;SDS011;44322;52.968;5.816;2023-06-14T11:20:52;5.68;;;2.38;;
58528;SDS011;44322;52.968;5.816;2023-06-14T11:23:18;4.68;;;2.10;;
58528;SDS011;44322;52.968;5.816;2023-06-14T11:25:49;4.65;;;1.95;;
58528;SDS011;44322;52.968;5.816;2023-06-14T11:28:15;4.00;;;2.35;;
58528;SDS011;44322;52.968;5.816;2023-06-14T11:30:40;3.42;;;1.98;;
58528;SDS011;44322;52.968;5.816;2023-06-14T11:33:09;4.18;;;2.08;;
58528;SDS011;44322;52.968;5.816;2023-06-14T11:35:35;4.13;;;2.15;;
58528;SDS011;44322;52.968;5.816;2023-06-14T11:38:01;3.85;;;2.10;;
58528;SDS011;44322;52.968;5.816;2023-06-14T11:40:27;4.47;;;1.70;;
58528;SDS011;44322;52.968;5.816;2023-06-14T11:42:59;3.45;;;1.95;;
58528;SDS011;44322;52.968;5.816;2023-06-14T11:45:26;4.20;;;2.20;;
58528;SDS011;44322;52.968;5.816;2023-06-14T11:47:53;5.63;;;2.00;;
58528;SDS011;44322;52.968;5.816;2023-06-14T11:50:20;3.65;;;2.00;;
58528;SDS011;44322;52.968;5.816;2023-06-14T11:52:51;5.75;;;1.75;;
58528;SDS011;44322;52.968;5.816;2023-06-14T11:55:18;2.65;;;1.75;;
58528;SDS011;44322;52.968;5.816;2023-06-14T11:57:46;2.85;;;1.75;;
58528;SDS011;44322;52.968;5.816;2023-06-14T12:00:12;3.72;;;2.00;;
58528;SDS011;44322;52.968;5.816;2023-06-14T12:02:38;4.10;;;1.83;;
58528;SDS011;44322;52.968;5.816;2023-06-14T12:05:05;3.70;;;2.03;;
58528;SDS011;44322;52.968;5.816;2023-06-14T12:07:38;4.28;;;1.90;;
58528;SDS011;44322;52.968;5.816;2023-06-14T12:10:08;2.33;;;1.95;;
58528;SDS011;44322;52.968;5.816;2023-06-14T12:12:35;4.70;;;1.85;;
58528;SDS011;44322;52.968;5.816;2023-06-14T12:15:03;2.10;;;1.80;;
58528;SDS011;44322;52.968;5.816;2023-06-14T12:19:59;3.88;;;1.83;;
58528;SDS011;44322;52.968;5.816;2023-06-14T12:22:32;2.05;;;1.73;;
58528;SDS011;44322;52.968;5.816;2023-06-14T12:24:57;5.07;;;1.70;;
58528;SDS011;44322;52.968;5.816;2023-06-14T12:27:23;3.78;;;1.67;;
58528;SDS011;44322;52.968;5.816;2023-06-14T12:30:00;3.90;;;1.95;;
58528;SDS011;44322;52.968;5.816;2023-06-14T12:32:27;2.70;;;1.58;;
58528;SDS011;44322;52.968;5.816;2023-06-14T12:34:53;3.42;;;1.85;;
58528;SDS011;44322;52.968;5.816;2023-06-14T12:37:18;1.75;;;1.58;;
58528;SDS011;44322;52.968;5.816;2023-06-14T12:39:44;2.40;;;1.48;;
58528;SDS011;44322;52.968;5.816;2023-06-14T12:42:10;3.25;;;1.60;;
58528;SDS011;44322;52.968;5.816;2023-06-14T12:44:35;4.30;;;1.80;;
58528;SDS011;44322;52.968;5.816;2023-06-14T12:47:05;2.92;;;1.70;;
58528;SDS011;44322;52.968;5.816;2023-06-14T12:49:31;2.95;;;1.60;;
58528;SDS011;44322;52.968;5.816;2023-06-14T12:51:57;2.45;;;1.40;;
58528;SDS011;44322;52.968;5.816;2023-06-14T12:54:22;1.80;;;1.52;;
58528;SDS011;44322;52.968;5.816;2023-06-14T12:56:51;2.42;;;1.48;;
58528;SDS011;44322;52.968;5.816;2023-06-14T12:59:17;2.03;;;1.30;;
58528;SDS011;44322;52.968;5.816;2023-06-14T13:01:43;4.18;;;1.80;;
58528;SDS011;44322;52.968;5.816;2023-06-14T13:04:10;1.90;;;1.38;;
58528;SDS011;44322;52.968;5.816;2023-06-14T13:06:36;5.10;;;1.73;;
58528;SDS011;44322;52.968;5.816;2023-06-14T13:09:01;4.68;;;1.88;;
58528;SDS011;44322;52.968;5.816;2023-06-14T13:13:54;3.85;;;1.75;;
58528;SDS011;44322;52.968;5.816;2023-06-14T13:16:20;3.47;;;1.90;;
58528;SDS011;44322;52.968;5.816;2023-06-14T13:18:45;3.15;;;1.60;;
58528;SDS011;44322;52.968;5.816;2023-06-14T13:21:11;3.53;;;1.75;;
58528;SDS011;44322;52.968;5.816;2023-06-14T13:23:36;2.72;;;1.70;;
58528;SDS011;44322;52.968;5.816;2023-06-14T13:26:02;4.07;;;1.83;;
58528;SDS011;44322;52.968;5.816;2023-06-14T13:28:28;2.80;;;1.85;;
58528;SDS011;44322;52.968;5.816;2023-06-14T13:30:53;2.85;;;1.90;;
58528;SDS011;44322;52.968;5.816;2023-06-14T13:35:49;3.72;;;1.77;;
58528;SDS011;44322;52.968;5.816;2023-06-14T13:38:15;3.35;;;1.83;;
58528;SDS011;44322;52.968;5.816;2023-06-14T13:40:40;3.88;;;1.77;;
58528;SDS011;44322;52.968;5.816;2023-06-14T13:43:06;3.42;;;1.77;;
58528;SDS011;44322;52.968;5.816;2023-06-14T13:45:32;2.20;;;1.92;;
58528;SDS011;44322;52.968;5.816;2023-06-14T13:47:57;3.22;;;2.13;;
58528;SDS011;44322;52.968;5.816;2023-06-14T13:50:23;2.70;;;1.73;;
58528;SDS011;44322;52.968;5.816;2023-06-14T13:52:48;2.75;;;1.70;;
58528;SDS011;44322;52.968;5.816;2023-06-14T13:55:14;4.55;;;1.83;;
58528;SDS011;44322;52.968;5.816;2023-06-14T13:57:40;4.28;;;1.77;;
58528;SDS011;44322;52.968;5.816;2023-06-14T14:00:05;2.28;;;1.90;;
58528;SDS011;44322;52.968;5.816;2023-06-14T14:02:41;2.80;;;1.80;;
58528;SDS011;44322;52.968;5.816;2023-06-14T14:05:06;4.32;;;1.83;;
58528;SDS011;44322;52.968;5.816;2023-06-14T14:07:33;2.65;;;1.77;;
58528;SDS011;44322;52.968;5.816;2023-06-14T14:09:59;3.53;;;2.05;;
58528;SDS011;44322;52.968;5.816;2023-06-14T14:12:25;6.20;;;1.90;;
58528;SDS011;44322;52.968;5.816;2023-06-14T14:14:51;2.90;;;1.70;;
58528;SDS011;44322;52.968;5.816;2023-06-14T14:17:16;3.35;;;1.80;;
58528;SDS011;44322;52.968;5.816;2023-06-14T14:19:42;3.58;;;1.70;;
58528;SDS011;44322;52.968;5.816;2023-06-14T14:22:08;3.65;;;1.73;;
58528;SDS011;44322;52.968;5.816;2023-06-14T14:24:34;2.58;;;1.88;;
58528;SDS011;44322;52.968;5.816;2023-06-14T14:27:00;4.50;;;1.90;;
58528;SDS011;44322;52.968;5.816;2023-06-14T14:29:25;4.60;;;1.92;;
58528;SDS011;44322;52.968;5.816;2023-06-14T14:31:54;4.47;;;1.98;;
58528;SDS011;44322;52.968;5.816;2023-06-14T14:34:21;2.20;;;1.73;;
58528;SDS011;44322;52.968;5.816;2023-06-14T14:36:47;4.65;;;1.70;;
58528;SDS011;44322;52.968;5.816;2023-06-14T14:39:12;2.80;;;1.70;;
58528;SDS011;44322;52.968;5.816;2023-06-14T14:41:38;3.45;;;1.85;;
58528;SDS011;44322;52.968;5.816;2023-06-14T14:44:05;2.65;;;1.70;;
58528;SDS011;44322;52.968;5.816;2023-06-14T14:46:31;2.90;;;1.52;;
58528;SDS011;44322;52.968;5.816;2023-06-14T14:48:58;3.45;;;1.77;;
58528;SDS011;44322;52.968;5.816;2023-06-14T14:51:24;2.97;;;1.95;;
58528;SDS011;44322;52.968;5.816;2023-06-14T14:53:49;2.08;;;1.70;;
58528;SDS011;44322;52.968;5.816;2023-06-14T14:56:15;2.53;;;1.75;;
58528;SDS011;44322;52.968;5.816;2023-06-14T14:58:40;2.40;;;1.55;;
58528;SDS011;44322;52.968;5.816;2023-06-14T15:01:06;2.92;;;1.60;;
58528;SDS011;44322;52.968;5.816;2023-06-14T15:03:32;2.42;;;1.80;;
58528;SDS011;44322;52.968;5.816;2023-06-14T15:05:58;3.65;;;1.80;;
58528;SDS011;44322;52.968;5.816;2023-06-14T15:08:23;3.75;;;2.05;;
58528;SDS011;44322;52.968;5.816;2023-06-14T15:10:49;2.20;;;1.40;;
58528;SDS011;44322;52.968;5.816;2023-06-14T15:13:14;4.57;;;1.70;;
58528;SDS011;44322;52.968;5.816;2023-06-14T15:15:40;2.63;;;1.80;;
58528;SDS011;44322;52.968;5.816;2023-06-14T15:18:06;2.50;;;1.88;;
58528;SDS011;44322;52.968;5.816;2023-06-14T15:20:31;4.10;;;1.70;;
58528;SDS011;44322;52.968;5.816;2023-06-14T15:22:57;3.20;;;1.88;;
58528;SDS011;44322;52.968;5.816;2023-06-14T15:25:30;6.03;;;1.90;;